Terminal Aerodrome Forecast
Issued by NWS Indianapolis, IN

Home | Current Version | Previous Version | Text Only | Print | Product List | Glossary On
Versions: 1 2 3 4 5 6 7 8 9 10 11 12 13 14 15 16 17 18 19 20 21 22 23 24 25 26 27 28 29 30
000
FTUS43 KIND 021700
TAFIND
TAF
KIND 021725Z 0218/0324 VRB04KT P6SM BKN250
     FM022300 10005KT P6SM SCT100 BKN200
     FM030300 10007KT P6SM OVC080
     FM031000 12007KT 4SM -FZRAPL BR SCT015 OVC040
     FM031200 14010KT 3SM -FZRA BR OVC012
     FM031600 18010KT 3SM -RA BR OVC008=

USA.gov is the U.S. government's official web portal to all federal, state and local government web resources and services.